Time;durP1;ratioP1;P1;durP2;ratioP2;P2;SDS_P1;SDS_P2;PMS_P1;PMS_P2;Temp;Humidity;BMP_temperature;BMP_pressure;BME280_temperature;BME280_humidity;BME280_pressure;Samples;Min_cycle;Max_cycle;Signal;HPM_P1;HPM_P2
2021/10/30 00:53:43;;;;;;;;;;;;;;;;;;;;;
2021/10/30 01:03:43;;;;;;;;;;;;;;;;;;;;;
2021/10/30 01:19:58;;;;;;;15.15;11.07;;;;;;;10.14;100.00;100511.69;2644471;36;19950;-73
2021/10/30 02:26:49;;;;;;;14.10;10.18;;;;;;;9.26;100.00;100430.97;2625144;36;20041;-73
2021/10/30 02:33:12;;;;;;;14.10;10.73;;;;;;;9.15;100.00;100423.06;2644753;36;20034;-73
2021/10/30 03:00:02;;;;;;;21.67;13.93;;;;;;;9.20;100.00;100393.94;2625897;36;20591;-73
2021/10/30 03:12:45;;;;;;;19.83;13.98;;;;;;;9.40;100.00;100376.84;2644881;36;20175;-72
2021/10/30 03:15:13;;;;;;;22.23;14.82;;;;;;;9.30;100.00;100367.94;2609181;36;20145;-73
2021/10/30 03:17:49;;;;;;;21.23;14.70;;;;;;;9.39;100.00;100366.25;2628172;36;20038;-71
2021/10/30 03:20:27;;;;;;;21.17;14.05;;;;;;;9.40;100.00;100352.69;2629450;31;20751;-72
2021/10/30 03:23:03;;;;;;;25.05;14.57;;;;;;;9.44;100.00;100353.28;2611079;36;20030;-73
2021/10/30 03:25:33;;;;;;;22.65;14.80;;;;;;;9.38;100.00;100343.94;2611604;36;20495;-72
2021/10/30 03:28:02;;;;;;;21.65;13.90;;;;;;;9.25;100.00;100344.19;2627631;36;20050;-72
2021/10/30 03:30:41;;;;;;;21.05;13.68;;;;;;;9.29;100.00;100328.69;2611937;36;20038;-72
2021/10/30 03:33:12;;;;;;;21.75;14.43;;;;;;;9.24;100.00;100333.59;2611132;36;20149;-72
2021/10/30 03:35:44;;;;;;;22.60;15.57;;;;;;;9.20;100.00;100314.25;2611362;36;20042;-72
2021/10/30 03:38:15;;;;;;;26.33;15.70;;;;;;;9.24;100.00;100322.88;2611426;36;20563;-72
2021/10/30 03:40:47;;;;;;;23.85;15.30;;;;;;;9.32;100.00;100336.44;2611330;36;20065;-73
2021/10/30 03:43:15;;;;;;;23.42;16.73;;;;;;;9.52;100.00;100331.06;2611480;36;20503;-72
2021/10/30 03:45:49;;;;;;;22.80;15.82;;;;;;;9.47;100.00;100326.13;2611629;36;20412;-73
2021/10/30 03:48:20;;;;;;;22.88;14.98;;;;;;;9.47;100.00;100315.38;2628726;31;20490;-72
2021/10/30 03:51:01;;;;;;;25.50;17.77;;;;;;;9.54;100.00;100326.38;2612067;36;20483;-72
2021/10/30 03:53:31;;;;;;;24.85;17.98;;;;;;;9.55;100.00;100322.72;2610593;36;20162;-72
2021/10/30 03:56:02;;;;;;;26.00;17.52;;;;;;;9.62;100.00;100323.84;2626340;36;20062;-72
2021/10/30 03:58:38;;;;;;;29.52;17.55;;;;;;;9.70;100.00;100325.81;2611167;36;20075;-72
2021/10/30 04:01:14;;;;;;;26.67;17.73;;;;;;;9.64;100.00;100321.84;2611777;36;20065;-73
2021/10/30 04:03:44;;;;;;;25.00;17.48;;;;;;;9.70;100.00;100315.94;2611343;36;20034;-72
2021/10/30 04:06:18;;;;;;;24.70;18.30;;;;;;;9.67;100.00;100313.50;2628663;31;20044;-72
2021/10/30 04:08:47;;;;;;;28.63;19.02;;;;;;;9.74;100.00;100316.47;2611677;36;20042;-72
2021/10/30 04:11:20;;;;;;;29.83;17.73;;;;;;;9.77;100.00;100317.00;2628890;36;20046;-72
2021/10/30 04:13:51;;;;;;;26.25;16.98;;;;;;;9.84;100.00;100309.25;2611444;36;20500;-72
2021/10/30 04:16:27;;;;;;;26.30;17.35;;;;;;;9.82;100.00;100309.38;2646539;36;20072;-73
2021/10/30 04:19:18;;;;;;;23.73;16.65;;;;;;;9.88;100.00;100302.59;2610755;31;20030;-72
2021/10/30 04:21:54;;;;;;;25.90;17.23;;;;;;;9.99;100.00;100301.56;2611675;36;20035;-72
2021/10/30 04:24:22;;;;;;;24.58;17.02;;;;;;;9.93;100.00;100302.16;2611221;36;20577;-72
2021/10/30 04:26:53;;;;;;;29.33;18.37;;;;;;;9.93;100.00;100294.91;2611235;31;20049;-73
2021/10/30 04:29:27;;;;;;;25.13;16.83;;;;;;;9.96;100.00;100300.00;2610983;36;20065;-72
2021/10/30 04:31:58;;;;;;;24.42;15.77;;;;;;;10.05;100.00;100292.91;2611573;36;20034;-72
2021/10/30 04:34:40;;;;;;;23.45;15.77;;;;;;;10.10;100.00;100293.31;2610775;36;20610;-72
2021/10/30 04:37:19;;;;;;;23.73;15.52;;;;;;;10.13;100.00;100279.56;2629366;36;20122;-72
2021/10/30 04:39:50;;;;;;;21.02;15.88;;;;;;;10.21;100.00;100269.94;2611124;36;20034;-72
2021/10/30 04:42:24;;;;;;;19.73;14.63;;;;;;;10.22;100.00;100276.97;2611415;36;20090;-72
2021/10/30 04:44:53;;;;;;;24.63;15.65;;;;;;;10.23;100.00;100273.31;2611288;36;20031;-72
2021/10/30 04:47:22;;;;;;;26.27;16.85;;;;;;;10.29;100.00;100267.31;2610910;36;20031;-72
2021/10/30 04:49:53;;;;;;;26.17;17.40;;;;;;;10.34;100.00;100259.69;2612080;31;20564;-72
2021/10/30 04:52:29;;;;;;;22.20;15.90;;;;;;;10.30;100.00;100247.50;2610869;36;20633;-72
2021/10/30 04:54:57;;;;;;;24.80;16.10;;;;;;;10.36;100.00;100244.25;2611003;36;20031;-72
2021/10/30 04:57:26;;;;;;;22.88;16.45;;;;;;;10.43;100.00;100247.19;2610857;31;20073;-72
2021/10/30 04:59:54;;;;;;;21.08;14.48;;;;;;;10.41;100.00;100239.28;2628195;31;20034;-72
2021/10/30 05:02:24;;;;;;;22.37;15.97;;;;;;;10.41;100.00;100233.91;2611447;36;20065;-72
2021/10/30 05:04:55;;;;;;;21.20;15.70;;;;;;;10.60;100.00;100227.56;2610742;36;20314;-72
2021/10/30 05:07:29;;;;;;;22.25;15.38;;;;;;;10.51;100.00;100223.94;2610905;36;20038;-72
2021/10/30 05:10:06;;;;;;;28.15;16.55;;;;;;;10.45;100.00;100224.53;2611859;31;20555;-72
2021/10/30 05:12:36;;;;;;;23.70;15.27;;;;;;;10.54;100.00;100222.78;2611306;36;20058;-70
2021/10/30 05:15:17;;;;;;;22.23;14.73;;;;;;;10.56;100.00;100217.25;2629050;31;20578;-72
2021/10/30 05:17:50;;;;;;;24.92;15.32;;;;;;;10.57;100.00;100213.53;2628840;31;20519;-72
2021/10/30 05:20:19;;;;;;;21.00;15.00;;;;;;;10.56;100.00;100225.31;2611123;31;20038;-72
2021/10/30 05:22:51;;;;;;;23.92;14.63;;;;;;;10.51;100.00;100223.94;2629264;36;20607;-72
2021/10/30 05:25:20;;;;;;;23.55;15.27;;;;;;;10.52;100.00;100222.91;2610034;36;20042;-72
2021/10/30 05:27:51;;;;;;;23.02;14.93;;;;;;;10.55;100.00;100213.69;2627658;36;20550;-71
2021/10/30 05:30:27;;;;;;;20.60;14.65;;;;;;;10.59;100.00;100217.78;2610551;36;20050;-72
2021/10/30 05:32:59;;;;;;;22.63;15.25;;;;;;;10.66;100.00;100209.94;2627808;36;20042;-72
2021/10/30 05:37:59;;;;;;;20.35;14.98;;;;;;;10.66;100.00;100216.16;2611653;39;20824;-72
2021/10/30 05:40:29;;;;;;;22.05;13.95;;;;;;;10.62;100.00;100208.56;2629301;36;20041;-72
2021/10/30 05:42:57;;;;;;;23.02;14.27;;;;;;;10.72;100.00;100203.97;2610388;36;20038;-72
2021/10/30 05:45:28;;;;;;;22.60;14.23;;;;;;;10.71;100.00;100194.19;2610769;36;20072;-72
2021/10/30 05:48:08;;;;;;;24.17;14.95;;;;;;;10.74;100.00;100191.19;2627952;36;20078;-71
2021/10/30 05:50:38;;;;;;;17.90;13.63;;;;;;;10.81;100.00;100181.50;2611088;36;20030;-71
2021/10/30 05:53:11;;;;;;;17.40;12.20;;;;;;;10.80;100.00;100179.78;2611102;36;20038;-70
2021/10/30 05:55:41;;;;;;;16.98;13.05;;;;;;;10.85;100.00;100188.25;2610808;36;20030;-71
2021/10/30 05:58:12;;;;;;;19.63;13.57;;;;;;;10.80;100.00;100176.25;2610661;36;20035;-71
2021/10/30 06:00:46;;;;;;;19.55;13.82;;;;;;;10.82;100.00;100167.03;2610747;36;20034;-71
2021/10/30 06:03:15;;;;;;;20.10;13.07;;;;;;;10.83;100.00;100176.78;2610626;36;20142;-72
2021/10/30 08:11:33;;;;;;;30.95;19.63;;;;;;;10.94;100.00;100102.16;2610721;36;20288;-68
2021/10/30 08:14:10;;;;;;;32.92;19.60;;;;;;;11.04;100.00;100089.44;2628383;36;20034;-69
2021/10/30 08:16:39;;;;;;;35.53;20.45;;;;;;;11.00;100.00;100105.09;2629797;36;20038;-69
2021/10/30 08:19:13;;;;;;;30.65;20.33;;;;;;;10.98;100.00;100092.78;2611329;36;20387;-68
2021/10/30 08:22:00;;;;;;;32.30;18.70;;;;;;;11.01;100.00;100087.94;2611711;36;20067;-68
2021/10/30 08:24:45;;;;;;;27.00;17.40;;;;;;;11.02;100.00;100092.28;2629269;36;20031;-69
2021/10/30 08:27:25;;;;;;;24.25;17.90;;;;;;;11.05;100.00;100078.50;2611986;36;20039;-69
2021/10/30 08:30:10;;;;;;;26.85;17.30;;;;;;;11.06;100.00;100074.00;2611502;36;20034;-68
2021/10/30 08:32:38;;;;;;;27.10;17.77;;;;;;;11.05;100.00;100074.97;2630291;36;20084;-69
2021/10/30 08:35:20;;;;;;;27.13;18.07;;;;;;;11.11;100.00;100068.97;2628890;36;20591;-70
2021/10/30 08:38:02;;;;;;;26.52;17.40;;;;;;;11.16;100.00;100065.78;2628380;36;20039;-67
2021/10/30 08:40:36;;;;;;;22.05;16.23;;;;;;;11.20;100.00;100065.31;2631394;31;20037;-69
2021/10/30 08:43:33;;;;;;;21.98;16.10;;;;;;;11.20;100.00;100061.78;2629746;36;20533;-68
2021/10/30 08:46:03;;;;;;;23.95;16.17;;;;;;;11.17;100.00;100056.69;2611773;36;20544;-69
2021/10/30 08:48:36;;;;;;;22.67;16.20;;;;;;;11.14;100.00;100052.47;2632804;36;20031;-68
2021/10/30 08:51:29;;;;;;;23.58;15.68;;;;;;;11.14;100.00;100060.56;2629723;36;20522;-68
2021/10/30 08:53:59;;;;;;;25.70;15.80;;;;;;;11.25;100.00;100053.19;2629171;36;20081;-67
2021/10/30 08:56:33;;;;;;;21.50;14.70;;;;;;;11.27;100.00;100046.66;2627520;31;20065;-68
2021/10/30 08:59:17;;;;;;;20.92;14.70;;;;;;;11.22;100.00;100049.84;2612948;36;20467;-68
2021/10/30 09:02:01;;;;;;;18.95;13.60;;;;;;;11.20;100.00;100043.78;2611669;36;20065;-67
2021/10/30 09:04:29;;;;;;;25.63;14.88;;;;;;;11.21;100.00;100042.75;2628589;36;21566;-68
2021/10/30 09:07:02;;;;;;;21.52;13.52;;;;;;;11.18;100.00;100037.69;2629545;36;20073;-68
2021/10/30 09:09:33;;;;;;;20.67;12.88;;;;;;;11.24;100.00;100040.75;2628849;36;20531;-68
2021/10/30 09:12:06;;;;;;;20.00;13.55;;;;;;;11.25;100.00;100043.28;2611214;36;20037;-70
2021/10/30 09:14:48;;;;;;;20.48;12.88;;;;;;;11.26;100.00;100049.50;2612115;36;20586;-69
2021/10/30 09:17:24;;;;;;;19.23;12.27;;;;;;;11.26;100.00;100038.75;2611808;36;20057;-68
2021/10/30 09:19:55;;;;;;;15.07;11.65;;;;;;;11.26;100.00;100027.97;2611870;31;20057;-69
2021/10/30 09:22:36;;;;;;;16.45;11.85;;;;;;;11.28;100.00;100031.31;2610307;36;20551;-68
2021/10/30 09:25:07;;;;;;;19.50;11.38;;;;;;;11.30;100.00;100021.25;2629269;36;20039;-68
2021/10/30 09:27:50;;;;;;;17.98;10.95;;;;;;;11.38;100.00;100021.28;2628417;36;20061;-69
2021/10/30 09:30:23;;;;;;;14.50;10.38;;;;;;;11.38;100.00;100029.34;2611575;31;20440;-69
2021/10/30 09:32:56;;;;;;;19.48;11.45;;;;;;;11.33;100.00;100019.06;2611438;36;20034;-68
2021/10/30 09:35:42;;;;;;;14.35;10.27;;;;;;;11.39;100.00;100028.34;2611583;36;20038;-68
2021/10/30 09:38:13;;;;;;;16.05;10.32;;;;;;;11.42;100.00;100019.94;2612221;36;20427;-68
2021/10/30 09:40:49;;;;;;;14.98;9.93;;;;;;;11.41;100.00;100020.97;2629377;36;20431;-69
2021/10/30 09:43:19;;;;;;;16.85;10.23;;;;;;;11.41;100.00;100029.06;2611095;36;20057;-68
2021/10/30 09:45:52;;;;;;;13.10;9.98;;;;;;;11.46;100.00;100029.41;2611240;36;20046;-69
2021/10/30 09:48:27;;;;;;;12.68;9.52;;;;;;;11.43;100.00;100029.72;2611154;36;20030;-68
2021/10/30 09:51:01;;;;;;;15.45;10.25;;;;;;;11.48;100.00;100026.53;2611229;36;20084;-70
2021/10/30 09:53:38;;;;;;;15.27;11.27;;;;;;;11.48;100.00;100027.38;2611450;31;20506;-69
2021/10/30 09:56:12;;;;;;;13.52;10.55;;;;;;;11.46;100.00;100033.97;2629562;36;20591;-68
2021/10/30 09:58:42;;;;;;;15.55;10.35;;;;;;;11.51;100.00;100027.06;2610510;36;20042;-68
2021/10/30 10:01:18;;;;;;;14.75;10.05;;;;;;;11.53;100.00;100025.06;2610078;36;20132;-68
2021/10/30 10:04:02;;;;;;;13.50;10.27;;;;;;;11.49;100.00;100026.38;2611660;36;20038;-70
2021/10/30 10:06:39;;;;;;;14.90;9.68;;;;;;;11.56;100.00;100026.59;2629008;36;20042;-71
2021/10/30 10:14:33;;;;;;;15.27;10.43;;;;;;;11.63;100.00;100024.94;2611801;54;20030;-67
2021/10/30 10:17:27;;;;;;;15.98;9.30;;;;;;;11.66;100.00;100021.03;2629191;36;20446;-68
2021/10/30 10:20:00;;;;;;;11.68;9.70;;;;;;;11.71;100.00;100021.41;2611320;36;20141;-67
2021/10/30 10:22:36;;;;;;;12.57;9.52;;;;;;;11.75;100.00;100020.06;2610886;36;20034;-67
2021/10/30 10:31:29;;;;;;;16.30;9.68;;;;;;;11.86;100.00;100011.66;2612816;36;20081;-67
2021/10/30 10:34:33;;;;;;;14.43;9.88;;;;;;;11.90;100.00;100006.78;2630148;36;20086;-67
2021/10/30 10:37:52;;;;;;;13.35;9.90;;;;;;;11.87;100.00;100007.13;2647851;36;20166;-69
2021/10/30 10:41:00;;;;;;;;;;;;;;;;;;;;;
2021/10/30 10:43:47;;;;;;;15.83;9.87;;;;;;;11.85;100.00;99999.22;2630266;36;20038;-69
2021/10/30 10:49:45;;;;;;;13.30;8.90;;;;;;;11.90;100.00;99998.72;2608154;31;20031;-69
2021/10/30 10:56:33;;;;;;;;;;;;;;;;;;;;;
2021/10/30 11:02:38;;;;;;;10.05;8.80;;;;;;;11.97;100.00;99988.97;2610693;36;20030;-67
2021/10/30 11:05:35;;;;;;;13.10;8.82;;;;;;;12.00;100.00;99971.59;2611096;54;20054;-69
2021/10/30 11:15:11;;;;;;;11.25;9.23;;;;;;;12.04;100.00;99959.47;2609502;36;20037;-69
2021/10/30 11:17:58;;;;;;;;;;;;;;;;;;;;;
2021/10/30 11:20:42;;;;;;;11.40;8.52;;;;;;;12.07;100.00;99956.44;2611408;36;20034;-68
2021/10/30 11:23:15;;;;;;;12.68;9.10;;;;;;;12.08;100.00;99955.44;2612306;36;20034;-70
2021/10/30 11:25:48;;;;;;;10.38;8.52;;;;;;;12.14;100.00;99952.06;2611686;36;20030;-69
2021/10/30 11:28:20;;;;;;;10.73;8.50;;;;;;;12.14;100.00;99943.97;2647360;36;20042;-68
2021/10/30 11:30:50;;;;;;;13.02;8.13;;;;;;;12.15;100.00;99951.03;2611351;36;20049;-68
2021/10/30 11:33:25;;;;;;;10.70;8.30;;;;;;;12.19;100.00;99943.44;2629742;36;20069;-70
2021/10/30 11:49:16;;;;;;;10.95;8.00;;;;;;;12.38;100.00;99926.94;2611058;36;20030;-68
2021/10/30 11:51:45;;;;;;;9.57;7.93;;;;;;;12.38;100.00;99921.53;2610807;36;20062;-70
2021/10/30 11:54:18;;;;;;;9.50;7.80;;;;;;;12.40;100.00;99922.19;2610357;36;20555;-68
2021/10/30 11:56:48;;;;;;;9.50;8.02;;;;;;;12.35;100.00;99921.00;2611665;36;20130;-68
2021/10/30 11:59:55;;;;;;;10.50;7.95;;;;;;;12.39;100.00;99919.66;2609991;54;20030;-70
2021/10/30 12:11:49;;;;;;;9.75;7.20;;;;;;;12.60;100.00;99911.88;2609565;39;20455;-74
2021/10/30 12:14:34;;;;;;;10.05;7.68;;;;;;;12.55;100.00;99900.72;2628553;36;20034;-67
2021/10/30 12:17:04;;;;;;;13.48;7.70;;;;;;;12.54;100.00;99895.50;2611847;36;20085;-76
2021/10/30 12:19:39;;;;;;;9.23;7.22;;;;;;;12.64;100.00;99898.03;2612261;36;20030;-68
2021/10/30 12:30:43;;;;;;;10.32;7.78;;;;;;;13.00;100.00;99886.75;2610134;36;20034;-72
2021/10/30 12:33:21;;;;;;;9.07;6.97;;;;;;;12.92;100.00;99880.34;2611268;36;20035;-69
2021/10/30 12:36:08;;;;;;;15.18;7.60;;;;;;;12.96;100.00;99879.00;2611567;31;20031;-68
2021/10/30 12:39:29;;;;;;;10.38;7.18;;;;;;;12.95;100.00;99882.69;2612130;36;20034;-71
2021/10/30 12:42:35;;;;;;;;;;;;;;;;;;;;;
2021/10/30 12:55:33;;;;;;;10.98;7.32;;;;;;;12.94;100.00;99856.72;2611254;36;20038;-71
2021/10/30 12:58:02;;;;;;;9.15;7.28;;;;;;;12.93;100.00;99854.19;2610515;36;20655;-69
2021/10/30 13:00:54;;;;;;;9.20;6.63;;;;;;;12.93;100.00;99851.50;2611448;36;20038;-68
2021/10/30 13:03:54;;;;;;;;;;;;;;;;;;;;;
2021/10/30 13:06:23;;;;;;;8.25;7.28;;;;;;;12.97;100.00;99844.72;2610924;36;20101;-69
2021/10/30 13:39:14;;;;;;;6.90;5.65;;;;;;;13.10;100.00;99849.53;2611283;54;20632;-70
2021/10/30 13:41:50;;;;;;;9.00;6.13;;;;;;;13.03;100.00;99848.56;2627774;36;20126;-75
2021/10/30 14:12:10;;;;;;;7.80;5.82;;;;;;;12.94;100.00;99836.97;2626922;36;20039;-69
2021/10/30 14:15:07;;;;;;;7.68;5.72;;;;;;;12.93;100.00;99848.81;2645415;36;20034;-71
2021/10/30 14:18:08;;;;;;;7.97;5.93;;;;;;;13.00;100.00;99854.31;2627019;36;20042;-75
2021/10/30 14:20:42;;;;;;;10.70;6.15;;;;;;;12.99;100.00;99860.75;2627953;36;20038;-68
2021/10/30 14:23:38;;;;;;;10.52;5.57;;;;;;;13.05;100.00;99860.88;2610505;36;20062;-77
2021/10/30 14:26:18;;;;;;;8.45;6.00;;;;;;;13.01;100.00;99861.41;2609820;36;20038;-70
2021/10/30 14:28:53;;;;;;;8.07;5.45;;;;;;;12.97;100.00;99856.38;2609691;36;20065;-75
2021/10/30 14:31:26;;;;;;;6.78;5.40;;;;;;;12.97;100.00;99853.66;2610548;36;20376;-67
2021/10/30 15:05:32;;;;;;;6.75;4.70;;;;;;;13.09;100.00;99867.63;2626389;36;20145;-68
2021/10/30 15:44:56;;;;;;;7.13;5.57;;;;;;;12.85;100.00;99884.75;2626783;36;20090;-70
2021/10/30 15:50:00;;;;;;;8.70;5.05;;;;;;;12.89;100.00;99886.09;2614543;46;20052;-70
2021/10/30 16:01:06;;;;;;;5.03;4.30;;;;;;;12.82;100.00;99885.13;2610907;36;20030;-69
2021/10/30 16:03:48;;;;;;;7.07;4.60;;;;;;;12.86;100.00;99891.03;2610831;36;20035;-68
2021/10/30 16:06:22;;;;;;;8.10;4.60;;;;;;;12.87;100.00;99898.13;2628496;36;20046;-68
2021/10/30 16:08:56;;;;;;;5.45;4.63;;;;;;;12.85;100.00;99898.25;2610913;36;20050;-69
2021/10/30 16:11:56;;;;;;;;;;;;;;;;;;;;;
2021/10/30 16:20:47;;;;;;;7.07;5.30;;;;;;;12.72;100.00;99901.53;2611004;36;20065;-68
2021/10/30 16:26:16;;;;;;;9.20;6.00;;;;;;;12.78;100.00;99916.22;2629526;31;20059;-68
2021/10/30 16:31:17;;;;;;;9.50;5.88;;;;;;;12.71;100.00;99931.41;2611740;36;20038;-68
2021/10/30 16:34:11;;;;;;;8.05;5.78;;;;;;;12.69;100.00;99944.22;2611026;54;20038;-69
2021/10/30 16:36:46;;;;;;;7.60;5.60;;;;;;;12.70;100.00;99951.31;2675327;36;20157;-69
2021/10/30 16:39:30;;;;;;;;;;;;;;;;;;;;;
2021/10/30 16:42:05;;;;;;;9.68;6.13;;;;;;;12.69;100.00;99969.38;2611407;36;20031;-70
2021/10/30 16:44:39;;;;;;;8.55;6.40;;;;;;;12.70;100.00;99972.91;2611863;36;20560;-69
2021/10/30 16:47:55;;;;;;;9.48;7.22;;;;;;;12.72;100.00;99974.44;2611803;36;20435;-70
2021/10/30 16:53:34;;;;;;;;;;;;;;;;;;;;;
2021/10/30 16:56:12;;;;;;;10.43;6.28;;;;;;;12.55;100.00;99989.81;2610294;36;20042;-71
2021/10/30 16:58:40;;;;;;;10.00;7.65;;;;;;;12.54;100.00;99987.28;2611089;36;20065;-70
2021/10/30 17:13:15;;;;;;;8.70;7.80;;;;;;;12.40;100.00;100018.50;2626766;36;20065;-70
2021/10/30 17:18:24;;;;;;;13.73;9.57;;;;;;;12.43;100.00;100031.66;2609427;36;20475;-69
2021/10/30 17:20:54;;;;;;;11.60;9.00;;;;;;;12.40;100.00;100032.00;2610957;36;20172;-69
2021/10/30 17:23:22;;;;;;;10.98;8.85;;;;;;;12.43;100.00;100035.19;2611596;36;20163;-71
2021/10/30 17:25:50;;;;;;;11.80;8.85;;;;;;;12.41;100.00;100033.66;2608656;36;20061;-71
2021/10/30 17:28:21;;;;;;;12.00;10.30;;;;;;;12.38;100.00;100047.50;2610910;36;20626;-69
2021/10/30 17:30:49;;;;;;;11.35;9.57;;;;;;;12.39;100.00;100041.09;2611139;36;20642;-69
2021/10/30 17:33:21;;;;;;;13.18;9.05;;;;;;;12.37;100.00;100037.75;2610413;36;20034;-71
2021/10/30 17:35:49;;;;;;;9.63;8.63;;;;;;;12.38;100.00;100044.78;2611176;36;20030;-70
2021/10/30 17:38:25;;;;;;;10.30;8.98;;;;;;;12.35;100.00;100037.03;2610837;36;20034;-69
2021/10/30 17:40:54;;;;;;;10.05;8.65;;;;;;;12.37;100.00;100016.97;2611031;36;20035;-69
2021/10/30 17:43:24;;;;;;;14.10;9.27;;;;;;;12.36;100.00;100044.13;2610237;36;20030;-71
2021/10/30 17:45:53;;;;;;;12.52;9.73;;;;;;;12.37;100.00;100040.44;2610793;36;20121;-70
2021/10/30 17:48:21;;;;;;;12.87;9.57;;;;;;;12.38;100.00;100055.59;2610515;36;20037;-71
2021/10/30 17:50:50;;;;;;;11.93;9.65;;;;;;;12.29;100.00;100062.84;2610638;36;20126;-71
2021/10/30 17:53:44;;;;;;;13.93;10.23;;;;;;;12.33;100.00;100068.75;2609807;31;20030;-70
2021/10/30 17:56:13;;;;;;;11.65;10.27;;;;;;;12.29;100.00;100057.44;2611446;31;20611;-70
2021/10/30 17:58:47;;;;;;;13.70;10.88;;;;;;;12.33;100.00;100074.16;2612026;31;20467;-70
2021/10/30 18:01:42;;;;;;;12.88;10.68;;;;;;;12.32;100.00;100070.59;2611928;36;20534;-71
2021/10/30 18:04:11;;;;;;;11.52;10.18;;;;;;;12.26;100.00;100069.44;2610902;31;20058;-72
2021/10/30 18:06:53;;;;;;;11.37;10.07;;;;;;;12.23;100.00;100068.91;2611631;36;20118;-70
2021/10/30 18:12:02;;;;;;;12.77;11.00;;;;;;;12.37;100.00;100072.81;2610511;36;20034;-70
2021/10/30 18:14:33;;;;;;;11.57;10.35;;;;;;;12.21;100.00;100063.69;2610717;36;20057;-70
2021/10/30 18:17:03;;;;;;;12.45;10.35;;;;;;;12.22;100.00;100089.66;2610924;36;20118;-72
2021/10/30 18:19:31;;;;;;;;;;;;;;;12.20;100.00;100099.75;2611275;36;20065;-70
2021/10/30 18:21:59;;;;;;;14.52;11.70;;;;;;;12.24;100.00;100106.50;2611306;36;19946;-70
2021/10/30 18:24:27;;;;;;;18.75;12.38;;;;;;;12.22;100.00;100094.19;2610412;36;20031;-70
2021/10/30 18:26:55;;;;;;;14.40;12.00;;;;;;;12.24;100.00;100095.72;2612100;31;20614;-70
2021/10/30 18:29:29;;;;;;;16.80;12.98;;;;;;;12.21;100.00;100097.91;2611107;36;20035;-72
2021/10/30 18:35:19;;;;;;;17.30;13.45;;;;;;;12.19;100.00;100102.63;2627963;36;20034;-69
2021/10/30 18:37:48;;;;;;;18.90;15.15;;;;;;;12.15;100.00;100123.69;2611215;36;20030;-70
2021/10/30 18:40:32;;;;;;;18.17;13.32;;;;;;;12.15;100.00;100128.25;2610448;36;20031;-72
2021/10/30 18:43:24;;;;;;;17.02;13.93;;;;;;;12.14;100.00;100119.28;2610782;36;20057;-72
2021/10/30 18:48:35;;;;;;;19.20;14.75;;;;;;;12.12;100.00;100129.41;2611189;31;20035;-70
2021/10/30 18:54:06;;;;;;;17.35;13.88;;;;;;;12.09;100.00;100127.06;2609657;54;20061;-70
2021/10/30 18:57:00;;;;;;;17.00;13.48;;;;;;;12.04;100.00;100130.25;2609537;36;20206;-70
2021/10/30 18:59:30;;;;;;;17.13;13.02;;;;;;;12.01;100.00;100135.09;2609725;36;20092;-69
2021/10/30 19:02:11;;;;;;;18.77;14.43;;;;;;;12.00;100.00;100144.19;2608967;36;20769;-70
2021/10/30 19:11:04;;;;;;;15.77;12.90;;;;;;;11.92;100.00;100155.78;2609293;36;20157;-69
2021/10/30 19:13:34;;;;;;;18.00;13.27;;;;;;;11.89;100.00;100159.63;2609873;36;20034;-72
2021/10/30 19:19:04;;;;;;;15.60;12.25;;;;;;;11.84;100.00;100171.94;2627310;36;20542;-70
2021/10/30 19:21:59;;;;;;;14.45;10.77;;;;;;;11.83;100.00;100173.75;2610922;36;20149;-69
2021/10/30 19:30:12;;;;;;;15.60;9.18;;;;;;;11.65;100.00;100179.25;2610606;36;20379;-69
2021/10/30 19:33:24;;;;;;;12.52;8.48;;;;;;;11.60;100.00;100186.09;2628946;36;20034;-71
2021/10/30 19:42:05;;;;;;;16.85;10.60;;;;;;;11.51;100.00;100199.56;2608262;36;20494;-70
2021/10/30 19:44:37;;;;;;;11.60;7.82;;;;;;;11.45;100.00;100196.63;2612513;31;20131;-71
2021/10/30 19:47:11;;;;;;;12.10;7.35;;;;;;;11.44;100.00;100205.72;2612465;36;20154;-69
2021/10/30 19:49:40;;;;;;;12.82;7.50;;;;;;;11.39;100.00;100206.19;2611789;36;20148;-69
2021/10/30 19:52:09;;;;;;;11.57;8.18;;;;;;;11.34;100.00;100205.81;2612176;36;20638;-69
2021/10/30 19:54:40;;;;;;;9.57;7.07;;;;;;;11.30;100.00;100210.66;2611794;36;20685;-70
2021/10/30 19:57:08;;;;;;;15.45;7.18;;;;;;;11.28;100.00;100209.13;2612028;36;20038;-71
2021/10/30 19:59:37;;;;;;;14.40;7.70;;;;;;;11.27;100.00;100218.22;2612177;36;20145;-69
2021/10/30 20:02:05;;;;;;;13.18;8.07;;;;;;;11.22;100.00;100216.84;2611737;36;20037;-71
2021/10/30 20:04:33;;;;;;;15.57;7.53;;;;;;;11.25;100.00;100231.00;2612322;31;20034;-69
2021/10/30 20:07:01;;;;;;;12.57;7.80;;;;;;;11.20;100.00;100235.03;2612501;36;20398;-69
2021/10/30 20:09:30;;;;;;;10.88;7.45;;;;;;;11.17;100.00;100235.34;2611902;36;20086;-71
2021/10/30 20:12:01;;;;;;;11.65;8.48;;;;;;;11.18;100.00;100242.38;2611732;36;20047;-70
2021/10/30 20:14:29;;;;;;;15.30;9.02;;;;;;;11.16;100.00;100248.94;2611974;36;20027;-69
2021/10/30 20:16:57;;;;;;;18.13;8.48;;;;;;;11.15;100.00;100241.88;2611628;36;20053;-69
2021/10/30 20:19:26;;;;;;;16.50;8.80;;;;;;;11.21;100.00;100252.03;2611730;31;20713;-69
2021/10/30 20:21:54;;;;;;;11.57;8.55;;;;;;;11.16;100.00;100251.63;2611713;36;20178;-69
2021/10/30 20:24:23;;;;;;;15.70;9.60;;;;;;;11.10;100.00;100261.19;2611641;36;20129;-69
2021/10/30 20:26:52;;;;;;;14.27;9.80;;;;;;;11.13;100.00;100260.88;2611866;36;20602;-71
2021/10/30 20:29:22;;;;;;;17.13;9.60;;;;;;;11.16;100.00;100268.66;2612031;36;20038;-70
2021/10/30 20:31:51;;;;;;;13.25;9.43;;;;;;;11.14;100.00;100269.78;2611947;36;20674;-69
2021/10/30 20:34:19;;;;;;;14.07;9.50;;;;;;;11.08;100.00;100273.13;2611516;36;20053;-70
2021/10/30 20:36:48;;;;;;;16.02;10.18;;;;;;;11.10;100.00;100274.66;2611852;31;20034;-70
2021/10/30 20:39:17;;;;;;;;;;;;;;;11.09;100.00;100277.50;2611846;36;20074;-71
2021/10/30 20:41:46;;;;;;;18.08;10.27;;;;;;;11.07;100.00;100283.06;2611861;36;20067;-69
2021/10/30 20:44:16;;;;;;;20.98;11.90;;;;;;;11.09;100.00;100286.44;2611699;36;20053;-69
2021/10/30 20:46:48;;;;;;;20.98;12.80;;;;;;;11.05;100.00;100287.72;2611557;36;20053;-68
2021/10/30 20:49:16;;;;;;;18.92;12.75;;;;;;;11.07;100.00;100292.97;2611906;36;20038;-69
2021/10/30 20:51:45;;;;;;;23.00;14.27;;;;;;;11.06;100.00;100297.50;2612165;36;20164;-71
2021/10/30 20:54:13;;;;;;;24.48;14.63;;;;;;;11.01;100.00;100295.28;2611396;36;20635;-69
2021/10/30 20:56:42;;;;;;;28.48;17.30;;;;;;;11.06;100.00;100297.50;2611862;36;20146;-71
2021/10/30 20:59:11;;;;;;;31.70;15.77;;;;;;;11.05;100.00;100309.28;2611863;36;20034;-69
2021/10/30 21:01:39;;;;;;;25.55;15.65;;;;;;;11.06;100.00;100313.66;2611625;36;20659;-72
2021/10/30 21:04:10;;;;;;;29.10;17.40;;;;;;;11.07;100.00;100319.88;2611504;36;20031;-70
2021/10/30 21:06:39;;;;;;;35.90;21.00;;;;;;;11.05;100.00;100328.94;2611749;36;20030;-69
2021/10/30 21:09:08;;;;;;;34.63;19.30;;;;;;;11.04;100.00;100324.59;2611904;36;20053;-70
2021/10/30 21:11:37;;;;;;;32.25;17.98;;;;;;;10.98;100.00;100325.19;2611688;36;20031;-69
2021/10/30 21:14:05;;;;;;;30.38;19.40;;;;;;;10.96;100.00;100329.03;2611349;36;20148;-69
2021/10/30 21:16:34;;;;;;;30.30;18.83;;;;;;;10.99;100.00;100329.56;2611662;36;20061;-69
2021/10/30 21:19:02;;;;;;;32.87;20.80;;;;;;;11.10;100.00;100341.13;2611450;36;20423;-69
2021/10/30 21:21:33;;;;;;;30.48;20.83;;;;;;;11.01;100.00;100334.81;2611579;31;20126;-70
2021/10/30 21:24:01;;;;;;;31.52;20.20;;;;;;;10.93;100.00;100334.72;2611566;36;20146;-70
2021/10/30 21:26:29;;;;;;;34.95;21.83;;;;;;;11.00;100.00;100333.97;2611474;36;20133;-69
2021/10/30 21:28:58;;;;;;;36.08;20.98;;;;;;;10.91;100.00;100342.09;2612106;36;20553;-68
2021/10/30 21:31:26;;;;;;;39.60;21.55;;;;;;;10.86;100.00;100343.41;2611253;36;20495;-70
2021/10/30 21:33:55;;;;;;;34.20;20.90;;;;;;;10.87;100.00;100357.72;2611238;36;20031;-69